createdAt,value
2023-04-30T00:01:28.342Z,99.9
2023-04-30T00:09:33.884Z,99.9
2023-04-30T00:13:36.731Z,99.9
2023-04-30T00:15:41.401Z,99.9
2023-04-30T00:17:42.829Z,99.9
2023-04-30T00:19:44.147Z,99.9
2023-04-30T00:32:58.105Z,99.9
2023-04-30T00:34:59.408Z,99.9
2023-04-30T00:37:00.794Z,99.9
2023-04-30T00:39:02.140Z,99.9
2023-04-30T01:03:25.313Z,99.9
2023-04-30T01:05:26.616Z,99.9
2023-04-30T01:07:28.011Z,99.9
2023-04-30T01:11:34.051Z,99.9
2023-04-30T01:13:35.483Z,99.9
2023-04-30T01:15:36.923Z,99.9
2023-04-30T01:16:39.183Z,99.9
2023-04-30T01:20:42.011Z,99.9
2023-04-30T01:22:43.377Z,99.9
2023-04-30T01:24:48.077Z,99.9
2023-04-30T01:26:49.505Z,99.9
2023-04-30T01:28:50.900Z,99.9
2023-04-30T01:30:52.287Z,99.9
2023-04-30T01:32:53.807Z,99.9
2023-04-30T01:34:55.085Z,99.9
2023-04-30T01:36:56.476Z,99.9
2023-04-30T01:41:02.484Z,99.9
2023-04-30T01:43:03.911Z,99.9
2023-04-30T01:45:05.394Z,99.9
2023-04-30T01:47:06.829Z,99.9
2023-04-30T01:49:08.316Z,99.9
2023-04-30T01:55:15.824Z,99.9
2023-04-30T01:57:17.258Z,99.9
2023-04-30T02:03:21.459Z,99.9
2023-04-30T02:05:22.820Z,99.9
2023-04-30T02:07:27.510Z,99.9
2023-04-30T02:09:28.939Z,99.9
2023-04-30T02:11:30.298Z,99.9
2023-04-30T02:13:49.623Z,99.9
2023-04-30T02:17:57.647Z,99.9
2023-04-30T02:22:03.573Z,99.9
2023-04-30T02:30:09.136Z,99.9
2023-04-30T02:32:10.529Z,99.9
2023-04-30T02:36:16.514Z,99.9
2023-04-30T02:38:17.885Z,99.9
2023-04-30T02:40:19.334Z,99.9
2023-04-30T02:42:14.852Z,99.9
2023-04-30T02:44:16.192Z,99.9
2023-04-30T02:48:22.202Z,99.9
2023-04-30T02:56:27.901Z,99.9
2023-04-30T02:58:29.203Z,99.9
2023-04-30T03:02:35.774Z,99.9
2023-04-30T03:06:38.482Z,99.9
2023-04-30T03:07:40.733Z,99.9
2023-04-30T03:09:42.157Z,99.9
2023-04-30T03:11:43.622Z,99.9
2023-04-30T03:13:45.034Z,99.9
2023-04-30T03:15:49.823Z,99.9
2023-04-30T03:17:51.207Z,99.9
2023-04-30T03:19:52.587Z,99.9
2023-04-30T03:21:53.922Z,99.9
2023-04-30T03:23:55.372Z,99.9
2023-04-30T03:25:56.712Z,99.9
2023-04-30T03:27:58.145Z,99.9
2023-04-30T03:32:04.147Z,99.9
2023-04-30T03:34:05.498Z,99.9
2023-04-30T03:36:06.885Z,99.9
2023-04-30T03:38:08.246Z,99.9
2023-04-30T03:42:11.100Z,99.9
2023-04-30T03:44:16.138Z,99.9
2023-04-30T03:46:17.205Z,99.9
2023-04-30T03:50:19.921Z,99.9
2023-04-30T03:52:21.380Z,99.9
2023-04-30T04:03:34.128Z,99.9
2023-04-30T04:05:35.528Z,99.9
2023-04-30T04:07:36.958Z,99.9
2023-04-30T04:09:38.363Z,99.9
2023-04-30T04:11:43.217Z,99.9
2023-04-30T04:13:44.522Z,99.9
2023-04-30T04:17:47.360Z,99.9
2023-04-30T04:21:50.024Z,99.9
2023-04-30T04:25:56.027Z,99.9
2023-04-30T04:29:58.831Z,99.9
2023-04-30T04:32:00.476Z,99.9
2023-04-30T04:40:09.388Z,99.9
2023-04-30T04:59:27.990Z,99.9
2023-04-30T05:01:29.441Z,99.9
2023-04-30T05:03:30.964Z,99.9
2023-04-30T05:07:37.002Z,99.9
2023-04-30T05:11:39.753Z,99.9
2023-04-30T05:13:41.087Z,99.9
2023-04-30T05:17:44.001Z,99.9
2023-04-30T05:19:45.273Z,99.9
2023-04-30T05:21:50.124Z,99.9
2023-04-30T05:23:51.479Z,99.9
2023-04-30T05:25:52.835Z,99.9
2023-04-30T05:27:54.202Z,99.9
2023-04-30T05:29:55.943Z,99.9
2023-04-30T05:31:57.053Z,99.9
2023-04-30T05:33:58.346Z,99.9
2023-04-30T05:36:03.019Z,99.9
2023-04-30T05:38:04.416Z,99.9
2023-04-30T05:40:05.886Z,99.9
2023-04-30T05:48:11.670Z,99.9
2023-04-30T05:50:16.199Z,99.9
2023-04-30T05:52:17.635Z,99.9
2023-04-30T05:54:18.975Z,99.9
2023-04-30T06:00:48.792Z,99.9
2023-04-30T06:02:54.171Z,99.9
2023-04-30T06:04:55.653Z,99.9
2023-04-30T06:06:56.951Z,99.9
2023-04-30T06:10:59.796Z,99.9
2023-04-30T06:15:02.680Z,99.9
2023-04-30T06:17:07.385Z,99.9
2023-04-30T06:31:20.639Z,99.9
2023-04-30T06:33:22.026Z,99.9
2023-04-30T06:35:23.493Z,99.9
2023-04-30T06:37:24.935Z,99.8
2023-04-30T06:49:31.006Z,99.6
2023-04-30T06:50:33.334Z,99.8
2023-04-30T06:52:34.761Z,99.8
2023-04-30T06:54:36.205Z,99.8
2023-04-30T07:00:43.738Z,99.7
2023-04-30T07:02:45.361Z,99.7
2023-04-30T07:04:46.599Z,99.5
2023-04-30T07:21:01.267Z,99
2023-04-30T07:23:02.674Z,98.9
2023-04-30T07:25:04.096Z,98.8
2023-04-30T07:27:08.830Z,98.8
2023-04-30T07:31:11.724Z,99.3
2023-04-30T07:35:14.503Z,99.6
2023-04-30T07:37:15.972Z,99.3
2023-04-30T07:39:17.385Z,99.1
2023-04-30T07:41:22.151Z,99.2
2023-04-30T07:43:23.580Z,98.7
2023-04-30T07:45:25.011Z,98.4
2023-04-30T07:46:27.444Z,98.7
2023-04-30T07:52:31.627Z,98.1
2023-04-30T07:56:37.799Z,96
2023-04-30T08:02:42.224Z,95.2
2023-04-30T08:12:52.505Z,95.4
2023-04-30T08:14:53.906Z,96.2
2023-04-30T08:20:58.157Z,94.8
2023-04-30T08:23:02.899Z,93.6
2023-04-30T08:27:05.725Z,92.3
2023-04-30T08:31:08.618Z,92.2
2023-04-30T08:42:21.381Z,91.2
2023-04-30T08:44:22.798Z,90.8
2023-04-30T08:46:24.329Z,90.6
2023-04-30T08:48:25.670Z,90.5
2023-04-30T08:50:31.924Z,83.7
2023-04-30T08:52:33.323Z,84
2023-04-30T08:54:34.790Z,87.5
2023-04-30T08:56:36.203Z,89.3
2023-04-30T08:58:37.701Z,89.2
2023-04-30T09:00:39.073Z,86.4
2023-04-30T09:02:40.599Z,86.7
2023-04-30T09:04:45.182Z,86.8
2023-04-30T09:06:46.634Z,87.1
2023-04-30T09:08:48.060Z,87.9
2023-04-30T09:12:50.896Z,87.7
2023-04-30T09:29:05.495Z,84.1
2023-04-30T09:35:12.996Z,82
2023-04-30T09:37:14.409Z,81.9
2023-04-30T09:43:33.855Z,81.9
2023-04-30T09:49:41.397Z,79.1
2023-04-30T09:57:47.076Z,79
2023-04-30T10:05:56.028Z,74.9
2023-04-30T10:07:57.423Z,74.6
2023-04-30T10:09:58.860Z,74.6
2023-04-30T10:12:00.275Z,77.2
2023-04-30T10:18:07.897Z,78.3
2023-04-30T10:20:09.173Z,81
2023-04-30T10:22:10.568Z,81.4
2023-04-30T10:26:13.410Z,79
2023-04-30T10:28:18.162Z,85.3
2023-04-30T10:30:19.594Z,84.1
2023-04-30T10:32:21.145Z,84.1
2023-04-30T10:33:23.398Z,83.6
2023-04-30T10:37:26.165Z,84.1
2023-04-30T10:41:32.190Z,84.2
2023-04-30T10:43:33.508Z,84.4
2023-04-30T10:49:37.769Z,83.5
2023-04-30T10:51:39.169Z,83.3
2023-04-30T10:55:45.279Z,86
2023-04-30T10:57:46.776Z,85.7
2023-04-30T10:59:48.134Z,85.6
2023-04-30T11:01:49.530Z,86.2
2023-04-30T11:03:50.925Z,86.1
2023-04-30T11:05:52.336Z,85.4
2023-04-30T11:07:53.717Z,84.4
2023-04-30T11:14:01.526Z,85.5
2023-04-30T11:16:02.560Z,86.2
2023-04-30T11:18:04.002Z,87.8
2023-04-30T11:20:05.294Z,89.2
2023-04-30T11:24:11.293Z,85.6
2023-04-30T11:26:12.623Z,82.3
2023-04-30T11:28:14.021Z,82.9
2023-04-30T11:33:18.993Z,83
2023-04-30T11:37:24.915Z,82.4
2023-04-30T11:39:26.275Z,82.4
2023-04-30T11:41:27.615Z,82.5
2023-04-30T11:43:29.068Z,82.8
2023-04-30T11:45:30.408Z,82.5
2023-04-30T11:47:31.834Z,82.7
2023-04-30T11:49:33.135Z,84.9
2023-04-30T11:51:37.738Z,84.9
2023-04-30T11:55:40.466Z,83.5
2023-04-30T11:57:41.709Z,82.4
2023-04-30T11:59:43.052Z,81.9
2023-04-30T12:01:44.681Z,82.1
2023-04-30T12:03:45.786Z,81.5
2023-04-30T12:05:50.430Z,81.2
2023-04-30T12:07:51.750Z,81.5
2023-04-30T12:09:53.443Z,83.7
2023-04-30T12:11:54.425Z,83.7
2023-04-30T12:13:55.825Z,82.3
2023-04-30T12:15:57.169Z,88.8
2023-04-30T12:17:58.538Z,83.2
2023-04-30T12:20:03.004Z,83.7
2023-04-30T12:22:04.386Z,83.5
2023-04-30T12:24:05.779Z,82.1
2023-04-30T12:25:08.149Z,81.6
2023-04-30T12:27:09.403Z,80.4
2023-04-30T12:29:12.066Z,80.2
2023-04-30T12:31:12.106Z,80.5
2023-04-30T12:33:16.812Z,80.7
2023-04-30T12:35:18.149Z,80.9
2023-04-30T12:37:19.500Z,81.5
2023-04-30T12:45:24.880Z,80.9
2023-04-30T12:47:29.654Z,80
2023-04-30T12:53:33.599Z,79.1
2023-04-30T12:59:37.554Z,76.2
2023-04-30T13:03:43.488Z,77.4
2023-04-30T13:05:44.707Z,77.9
2023-04-30T13:07:45.973Z,76.8
2023-04-30T13:11:48.542Z,76.5
2023-04-30T13:13:49.819Z,75.8
2023-04-30T13:15:54.377Z,74.8
2023-04-30T13:17:55.725Z,74.5
2023-04-30T13:19:57.350Z,74
2023-04-30T13:22:19.776Z,73.5
2023-04-30T13:24:21.075Z,73.6
2023-04-30T13:26:22.349Z,73.3
2023-04-30T13:28:26.820Z,72.1
2023-04-30T13:30:28.157Z,71.8
2023-04-30T13:32:29.569Z,71.5
2023-04-30T13:34:30.768Z,71.3
2023-04-30T13:36:32.040Z,70.9
2023-04-30T13:38:33.325Z,68.7
2023-04-30T13:40:34.717Z,68.2
2023-04-30T13:42:39.456Z,67.5
2023-04-30T13:44:40.611Z,70.8
2023-04-30T13:46:41.894Z,78.5
2023-04-30T13:48:43.129Z,78.8
2023-04-30T13:50:44.419Z,78.1
2023-04-30T13:52:45.781Z,78.1
2023-04-30T13:54:47.067Z,77.7
2023-04-30T13:56:51.554Z,71.8
2023-04-30T13:58:52.850Z,71.9
2023-04-30T14:16:08.812Z,67.6
2023-04-30T14:18:10.088Z,67.2
2023-04-30T14:20:11.353Z,65.6
2023-04-30T14:22:12.583Z,63.5
2023-04-30T14:24:17.096Z,65.8
2023-04-30T14:28:19.642Z,66.4
2023-04-30T14:30:20.920Z,66.2
2023-04-30T14:32:22.314Z,66.2
2023-04-30T14:38:30.785Z,66.9
2023-04-30T14:42:33.257Z,67
2023-04-30T14:44:34.533Z,66.6
2023-04-30T14:46:35.867Z,66.3
2023-04-30T14:48:37.049Z,66.3
2023-04-30T14:50:38.318Z,66.9
2023-04-30T14:52:42.788Z,68.1
2023-04-30T14:54:44.069Z,68.6
2023-04-30T14:56:45.425Z,68.9
2023-04-30T14:58:46.754Z,68.9
2023-04-30T15:00:48.074Z,69
2023-04-30T15:02:49.499Z,69.5
2023-04-30T15:06:55.158Z,66.7
2023-04-30T15:12:00.156Z,63.3
2023-04-30T15:16:02.697Z,62.1
2023-04-30T15:18:03.988Z,61.7
2023-04-30T15:22:09.904Z,60.9
2023-04-30T15:24:11.163Z,60.8
2023-04-30T15:26:12.464Z,63.1
2023-04-30T15:28:13.780Z,65.2
2023-04-30T15:32:16.280Z,65.1
2023-04-30T15:36:22.013Z,61.1
2023-04-30T15:38:23.265Z,60.8
2023-04-30T15:40:24.538Z,60.8
2023-04-30T15:42:25.809Z,61.1
2023-04-30T15:44:27.057Z,65.5
2023-04-30T15:46:28.349Z,67.3
2023-04-30T15:48:32.885Z,68.1
2023-04-30T15:50:34.186Z,68.2
2023-04-30T15:52:37.578Z,68.4
2023-04-30T15:54:36.784Z,68.4
2023-04-30T15:56:38.076Z,68.5
2023-04-30T15:58:39.452Z,69.5
2023-04-30T16:00:40.843Z,69.7
2023-04-30T16:02:45.478Z,71.3
2023-04-30T16:04:46.728Z,67.3
2023-04-30T16:07:50.406Z,66.6
2023-04-30T16:11:53.010Z,65.8
2023-04-30T16:15:59.062Z,65.5
2023-04-30T16:20:01.610Z,64.1
2023-04-30T16:22:02.910Z,63.5
2023-04-30T16:24:04.219Z,62.8
2023-04-30T16:26:05.607Z,62
2023-04-30T16:30:11.494Z,61.6
2023-04-30T16:40:17.941Z,61.9
2023-04-30T16:50:27.545Z,61.3
2023-04-30T17:00:37.418Z,65.4
2023-04-30T17:13:09.856Z,66.5
2023-04-30T17:17:12.429Z,65.5
2023-04-30T17:37:29.033Z,70.1
2023-04-30T17:39:33.735Z,70.7
2023-04-30T17:41:35.170Z,71
2023-04-30T17:43:36.653Z,70.9
2023-04-30T17:45:37.962Z,70.6
2023-04-30T17:49:40.725Z,70.3
2023-04-30T17:53:46.873Z,70
2023-04-30T17:55:48.260Z,70.2
2023-04-30T17:57:49.669Z,70.5
2023-04-30T17:58:52.355Z,70.6
2023-04-30T18:00:53.793Z,70.9
2023-04-30T18:02:55.266Z,71
2023-04-30T18:04:56.674Z,71.3
2023-04-30T18:07:01.348Z,71.9
2023-04-30T18:11:04.189Z,72.7
2023-04-30T18:13:05.566Z,73
2023-04-30T18:15:07.000Z,73.1
2023-04-30T18:17:08.465Z,73.2
2023-04-30T18:19:09.858Z,73.3
2023-04-30T18:21:14.604Z,73.6
2023-04-30T18:23:16.104Z,73.9
2023-04-30T18:27:18.842Z,74.4
2023-04-30T18:29:20.286Z,74.6
2023-04-30T18:31:21.802Z,74.8
2023-04-30T18:33:23.176Z,75
2023-04-30T18:35:27.868Z,75.5
2023-04-30T18:37:29.305Z,75.8
2023-04-30T18:39:30.700Z,76.2
2023-04-30T18:41:32.152Z,76.5
2023-04-30T18:43:33.592Z,79.6
2023-04-30T18:45:35.047Z,83.5
2023-04-30T18:47:36.494Z,84.1
2023-04-30T18:49:41.206Z,85.2
2023-04-30T18:51:42.647Z,85.8
2023-04-30T18:53:44.043Z,86.8
2023-04-30T18:54:46.406Z,90.8
2023-04-30T18:56:47.832Z,92.9
2023-04-30T18:58:49.305Z,94.4
2023-04-30T19:00:50.741Z,96
2023-04-30T19:02:55.547Z,97.7
2023-04-30T19:08:59.889Z,99.1
2023-04-30T19:11:01.189Z,99.6
2023-04-30T19:13:02.667Z,99.7
2023-04-30T19:15:04.075Z,99.9
2023-04-30T19:25:14.541Z,99.9
2023-04-30T19:27:15.972Z,99.9
2023-04-30T19:29:17.408Z,99.9
2023-04-30T19:31:22.311Z,99.9
2023-04-30T19:33:23.744Z,99.9
2023-04-30T19:35:25.010Z,99.9
2023-04-30T19:37:26.475Z,99.9
2023-04-30T19:45:35.559Z,99.9
2023-04-30T19:47:37.030Z,99.9
2023-04-30T19:49:38.398Z,99.9
2023-04-30T19:50:40.746Z,99.9
2023-04-30T19:56:45.095Z,99.9
2023-04-30T19:58:49.812Z,99.9
2023-04-30T20:10:58.478Z,99.9
2023-04-30T20:13:03.220Z,99.9
2023-04-30T20:15:04.650Z,99.9
2023-04-30T20:21:08.921Z,99.9
2023-04-30T20:23:10.373Z,99.9
2023-04-30T20:25:11.772Z,99.9
2023-04-30T20:27:16.520Z,99.9
2023-04-30T20:29:19.515Z,99.9
2023-04-30T20:31:20.918Z,99.9
2023-04-30T20:33:22.329Z,99.9
2023-04-30T20:35:23.775Z,99.9
2023-04-30T20:37:25.205Z,99.9
2023-04-30T20:39:26.693Z,99.9
2023-04-30T20:41:31.377Z,99.9
2023-04-30T20:43:32.790Z,99.9
2023-04-30T20:45:34.258Z,99.9
2023-04-30T20:47:57.349Z,99.9
2023-04-30T20:49:58.956Z,99.9
2023-04-30T20:52:00.189Z,99.9
2023-04-30T20:54:04.890Z,99.9
2023-04-30T20:58:07.757Z,99.9
2023-04-30T21:08:18.204Z,99.9
2023-04-30T21:10:19.635Z,99.9
2023-04-30T21:12:21.068Z,99.9
2023-04-30T21:18:25.377Z,99.9
2023-04-30T21:20:26.830Z,99.9
2023-04-30T21:22:31.552Z,99.9
2023-04-30T21:24:32.978Z,99.9
2023-04-30T21:28:35.816Z,99.9
2023-04-30T21:32:38.742Z,99.9
2023-04-30T21:34:40.106Z,99.9
2023-04-30T21:41:50.002Z,99.9
2023-04-30T21:43:51.438Z,99.9
2023-04-30T21:47:54.364Z,99.9
2023-04-30T21:52:00.422Z,99.9
2023-04-30T21:54:01.924Z,99.9
2023-04-30T21:56:03.317Z,99.9
2023-04-30T21:58:04.702Z,99.9
2023-04-30T22:00:06.159Z,99.9
2023-04-30T22:02:22.349Z,99.9
2023-04-30T22:04:12.282Z,99.9
2023-04-30T22:06:13.757Z,99.9
2023-04-30T22:08:15.119Z,99.9
2023-04-30T22:10:16.536Z,99.9
2023-04-30T22:12:17.960Z,99.9
2023-04-30T22:14:19.379Z,99.9
2023-04-30T22:16:20.853Z,99.9
2023-04-30T22:18:25.668Z,99.9
2023-04-30T22:20:26.980Z,99.9
2023-04-30T22:24:29.807Z,99.9
2023-04-30T22:26:31.197Z,99.9
2023-04-30T22:36:41.566Z,99.9
2023-04-30T22:37:43.935Z,99.9
2023-04-30T22:39:45.327Z,99.9
2023-04-30T22:41:46.731Z,99.9
2023-04-30T22:45:52.872Z,99.9
2023-04-30T22:47:54.427Z,99.9
2023-04-30T22:55:59.910Z,99.9
2023-04-30T23:00:06.062Z,99.9
2023-04-30T23:06:10.381Z,99.9
2023-04-30T23:22:24.894Z,99.9
2023-04-30T23:33:37.584Z,99.9
2023-04-30T23:35:38.978Z,99.9
2023-04-30T23:39:41.794Z,99.9
2023-04-30T23:47:50.779Z,99.9
2023-04-30T23:49:52.182Z,99.9
2023-04-30T23:53:54.961Z,99.9
2023-04-30T23:58:01.047Z,99.9
